Airfield :
LOGIN :

Register | Disclaimer

   EN    FR    IT 

 










Legend :    VFR   Marginal VFR   IFR   Intensive IFR   Very Intensive IFR
Visi :
Ceiling :
>= 8 km
>= 3000ft
5 to 8 km
1000 to 3000 ft
1500m to 5 km
500 to 1000 ft
800 to 1500m
200 to 500 ft
< 800m
< 200 ft
Symbols :   Thunderstorms  Fog  Heavy snow  Heavy precipitations  Wind > 20 kt
SIGMETs :     Misc.  Thunderstorms  Icing  Turbulence  Mountain Waves  Volcanic Ashes






- Airport Elevation : 157 ft
- IATA code : LIL


LFQQ - Lille Lesquin

CURRENT METAR :
  • 251930Z AUTO 14006KT 9999 SCT034 SCT056 BKN090 08/07 Q1017 NOSIG

EXPIRED METARs :
  • 251900Z AUTO 14007KT 9999 FEW044 BKN054 08/06 Q1017 NOSIG
  • 251830Z AUTO 17005KT CAVOK 09/07 Q1017 NOSIG
  • 251800Z AUTO 16007KT 9999 BKN032 BKN038 OVC058 09/07 Q1017 NOSIG
  • 251730Z AUTO 17007KT 9999 FEW037 OVC048 10/07 Q1017 NOSIG
  • 251700Z AUTO 16008KT 9999 FEW032 OVC043 10/07 Q1016 NOSIG
  • 251630Z AUTO 17006KT 9999 BKN031 OVC044 10/07 Q1016 NOSIG

TAF TAF LFQQ
Valid from the 25 at 18:00 until the 27 at 00:00 UTC


251700Z 2518/2624 17006KT 9999 BKN040
PROB30
TEMPO 2602/2610 2000 BR BKN003
BECMG 2618/2621 3000 BR
BECMG 2621/2624 0300 FG VV///
ATIS : +33 3 20 16 19 54



MET'MAP, your aeronautical weather chart ! - Copyright ORBIFLY December 2007 - Disclaimer

ORBIFLY MET'MAP TEAM :

Programming & Development : Alexandra Zaïnal
Concept & original design : Baudouin d'Aumeries
Assistance for programming : Marc-Olivier Méhu
Technical & hardware support : Manuel Goepfert

Contact : metmap@orbifly.com




SOURCES & CREDITS :

   NOAA